Time;durP1;ratioP1;P1;durP2;ratioP2;P2;SDS_P1;SDS_P2;PMS_P1;PMS_P2;Temp;Humidity;BMP_temperature;BMP_pressure;BME280_temperature;BME280_humidity;BME280_pressure;Samples;Min_cycle;Max_cycle;Signal;HPM_P1;HPM_P2
2020/12/28 00:00:15;;;;;;;1.10;1.00;;;5.70;99.90;;;;;;4951384;28;20444;-67
2020/12/28 00:02:42;;;;;;;1.37;1.17;;;5.70;99.90;;;;;;4950915;28;20430;-67
2020/12/28 00:05:10;;;;;;;1.80;1.30;;;5.70;99.90;;;;;;4952066;28;20792;-68
2020/12/28 00:07:37;;;;;;;1.47;0.90;;;5.60;99.90;;;;;;4951282;28;20860;-67
2020/12/28 00:10:05;;;;;;;1.27;1.17;;;5.60;99.90;;;;;;4951561;28;20559;-67
2020/12/28 00:12:46;;;;;;;1.10;0.80;;;5.60;99.90;;;;;;4951852;28;20420;-68
2020/12/28 00:15:22;;;;;;;1.17;0.90;;;5.50;99.90;;;;;;4951481;28;20515;-67
2020/12/28 00:17:53;;;;;;;0.77;0.60;;;5.50;99.90;;;;;;4950528;28;20440;-68
2020/12/28 00:20:21;;;;;;;1.10;0.90;;;5.40;99.90;;;;;;4951777;28;20436;-67
2020/12/28 00:22:48;;;;;;;1.10;0.80;;;5.40;99.90;;;;;;4951179;28;20447;-67
2020/12/28 00:25:16;;;;;;;1.47;0.70;;;5.40;99.90;;;;;;4951444;28;20429;-68
2020/12/28 00:27:42;;;;;;;1.23;1.07;;;5.40;99.90;;;;;;4950209;28;20474;-68
2020/12/28 00:30:09;;;;;;;0.90;0.90;;;5.40;99.90;;;;;;4951050;28;20554;-67
2020/12/28 00:32:38;;;;;;;1.10;0.90;;;5.40;99.90;;;;;;4951770;28;20846;-66
2020/12/28 00:35:05;;;;;;;3.40;0.73;;;5.40;99.90;;;;;;4951041;28;20424;-68
2020/12/28 00:37:31;;;;;;;1.40;1.30;;;5.30;99.90;;;;;;4950903;28;21052;-68
2020/12/28 00:39:57;;;;;;;0.97;0.80;;;5.30;99.90;;;;;;4950474;28;20432;-66
2020/12/28 00:42:23;;;;;;;1.90;0.80;;;5.30;99.90;;;;;;4951049;28;20301;-67
2020/12/28 00:44:49;;;;;;;2.00;1.00;;;5.30;99.90;;;;;;4950617;28;20185;-68
2020/12/28 00:47:15;;;;;;;1.50;0.93;;;5.30;99.90;;;;;;4950967;28;20456;-68
2020/12/28 00:49:40;;;;;;;1.40;0.80;;;5.30;99.90;;;;;;4949816;28;20464;-67
2020/12/28 00:52:06;;;;;;;0.93;0.70;;;5.30;99.90;;;;;;4950890;28;20183;-67
2020/12/28 00:54:33;;;;;;;0.80;0.70;;;5.30;99.90;;;;;;4951193;28;20177;-65
2020/12/28 00:56:59;;;;;;;0.80;0.73;;;5.30;99.90;;;;;;4951100;28;20279;-67
2020/12/28 00:59:24;;;;;;;1.20;0.93;;;5.40;99.90;;;;;;4950260;28;21026;-68
2020/12/28 01:01:54;;;;;;;0.90;0.90;;;5.40;99.90;;;;;;4950925;28;20231;-67
2020/12/28 01:04:19;;;;;;;1.27;0.83;;;5.50;99.90;;;;;;4951134;29;20180;-66
2020/12/28 01:06:45;;;;;;;1.33;0.90;;;5.50;99.90;;;;;;4950737;29;20479;-67
2020/12/28 01:09:10;;;;;;;1.00;0.80;;;5.50;99.90;;;;;;4950049;29;20560;-68
2020/12/28 01:11:36;;;;;;;1.40;1.30;;;5.50;99.90;;;;;;4950342;29;20185;-67
2020/12/28 01:14:02;;;;;;;0.90;0.90;;;5.60;99.90;;;;;;4950692;28;20485;-67
2020/12/28 01:16:27;;;;;;;1.03;0.90;;;5.60;99.90;;;;;;4950376;29;20236;-67
2020/12/28 01:18:53;;;;;;;1.20;0.80;;;5.50;99.90;;;;;;4949534;29;20271;-67
2020/12/28 01:21:20;;;;;;;0.80;0.80;;;5.50;99.90;;;;;;4950336;29;20185;-68
2020/12/28 01:23:46;;;;;;;1.47;0.80;;;5.50;99.90;;;;;;4950096;29;20180;-66
2020/12/28 01:26:13;;;;;;;1.00;0.90;;;5.40;99.90;;;;;;4950270;29;20474;-67
2020/12/28 01:28:38;;;;;;;1.50;1.03;;;5.40;99.90;;;;;;4949177;29;20217;-67
2020/12/28 01:31:04;;;;;;;0.97;0.97;;;5.50;99.90;;;;;;4949960;29;20476;-67
2020/12/28 01:33:29;;;;;;;1.53;1.00;;;5.50;99.90;;;;;;4949799;29;20436;-67
2020/12/28 01:35:55;;;;;;;1.00;1.00;;;5.50;99.90;;;;;;4949894;29;20236;-67
2020/12/28 01:38:20;;;;;;;1.77;1.50;;;5.60;99.90;;;;;;4949447;29;20188;-67
2020/12/28 01:40:46;;;;;;;2.77;1.17;;;5.60;99.90;;;;;;4949825;29;20181;-67
2020/12/28 01:43:12;;;;;;;1.00;0.93;;;5.50;99.90;;;;;;4950015;29;20181;-67
2020/12/28 01:45:38;;;;;;;1.30;1.13;;;5.50;99.90;;;;;;4949929;29;20582;-67
2020/12/28 01:48:03;;;;;;;1.53;1.27;;;5.50;99.90;;;;;;4949034;29;20460;-68
2020/12/28 01:50:29;;;;;;;1.30;1.20;;;5.40;99.90;;;;;;4949637;29;20221;-67
2020/12/28 01:52:55;;;;;;;0.80;0.80;;;5.40;99.90;;;;;;4950073;29;20173;-67
2020/12/28 01:55:21;;;;;;;1.13;1.00;;;5.40;99.90;;;;;;4949764;29;20177;-67
2020/12/28 01:57:47;;;;;;;0.80;0.80;;;5.40;99.90;;;;;;4948382;28;20714;-68
2020/12/28 02:00:13;;;;;;;2.40;1.30;;;5.30;99.90;;;;;;4949614;29;20428;-68
2020/12/28 02:02:40;;;;;;;1.80;1.10;;;5.30;99.90;;;;;;4949336;28;20503;-67
2020/12/28 02:05:05;;;;;;;4.73;1.20;;;5.30;99.90;;;;;;4949732;28;20643;-67
2020/12/28 02:07:37;;;;;;;1.10;1.00;;;5.30;99.90;;;;;;4949164;28;20449;-67
2020/12/28 02:10:07;;;;;;;0.87;0.87;;;5.30;99.90;;;;;;4949146;28;20227;-68
2020/12/28 02:12:34;;;;;;;1.13;1.03;;;5.30;99.90;;;;;;4949433;28;20420;-68
2020/12/28 02:15:00;;;;;;;1.00;1.00;;;5.30;99.90;;;;;;4949622;28;20429;-67
2020/12/28 02:17:26;;;;;;;1.37;1.27;;;5.20;99.90;;;;;;4949353;28;20988;-68
2020/12/28 02:19:51;;;;;;;1.30;1.20;;;5.20;99.90;;;;;;4948859;28;20181;-68
2020/12/28 02:22:17;;;;;;;1.53;1.43;;;5.10;99.90;;;;;;4949456;28;20227;-68
2020/12/28 02:24:43;;;;;;;1.43;1.33;;;5.10;99.90;;;;;;4949306;28;20423;-67
2020/12/28 02:27:08;;;;;;;3.33;2.67;;;5.00;99.90;;;;;;4949555;28;20241;-67
2020/12/28 02:29:34;;;;;;;5.47;2.17;;;5.00;99.90;;;;;;4948354;28;20287;-67
2020/12/28 02:31:59;;;;;;;2.10;1.90;;;4.90;99.90;;;;;;4947770;29;20185;-67
2020/12/28 02:34:26;;;;;;;1.47;1.37;;;4.90;99.90;;;;;;4949179;28;20660;-68
2020/12/28 02:36:51;;;;;;;1.37;1.27;;;4.90;99.90;;;;;;4949214;28;20208;-67
2020/12/28 02:39:17;;;;;;;1.93;1.83;;;4.80;99.90;;;;;;4948156;28;20416;-68
2020/12/28 02:41:43;;;;;;;1.37;1.27;;;4.80;99.90;;;;;;4949193;28;20686;-68
2020/12/28 02:44:08;;;;;;;1.50;1.40;;;4.80;99.90;;;;;;4949380;28;20231;-68
2020/12/28 02:46:34;;;;;;;3.57;2.77;;;4.80;99.90;;;;;;4949157;28;20687;-68
2020/12/28 02:48:59;;;;;;;1.83;1.73;;;4.80;99.90;;;;;;4948480;28;20216;-68
2020/12/28 02:51:25;;;;;;;1.67;1.57;;;4.80;99.90;;;;;;4948889;28;20208;-68
2020/12/28 02:53:50;;;;;;;3.97;3.57;;;4.70;99.90;;;;;;4949157;28;20524;-68
2020/12/28 02:56:16;;;;;;;2.50;2.03;;;4.70;99.90;;;;;;4948796;28;20682;-67
2020/12/28 02:58:41;;;;;;;1.67;1.57;;;4.70;99.90;;;;;;4948271;28;20175;-68
2020/12/28 03:01:07;;;;;;;2.10;1.90;;;4.60;99.90;;;;;;4947821;28;20722;-68
2020/12/28 03:03:32;;;;;;;2.07;1.87;;;4.60;99.90;;;;;;4949080;28;20189;-68
2020/12/28 03:05:58;;;;;;;1.57;1.43;;;4.60;99.90;;;;;;4949352;28;20181;-67
2020/12/28 03:08:24;;;;;;;1.43;1.40;;;4.60;99.90;;;;;;4948396;28;20216;-69
2020/12/28 03:10:49;;;;;;;1.70;1.60;;;4.60;99.90;;;;;;4951006;28;20216;-68
2020/12/28 03:13:15;;;;;;;1.90;1.80;;;4.60;99.90;;;;;;4951127;28;20177;-68
2020/12/28 03:15:40;;;;;;;2.13;1.97;;;4.60;99.90;;;;;;4953264;28;20176;-66
2020/12/28 03:18:06;;;;;;;1.40;1.30;;;4.60;99.90;;;;;;4950382;29;20257;-68
2020/12/28 03:20:31;;;;;;;1.53;1.43;;;4.60;99.90;;;;;;4952679;28;20204;-68
2020/12/28 03:22:57;;;;;;;1.83;1.70;;;4.50;99.90;;;;;;4952658;28;20267;-67
2020/12/28 03:25:22;;;;;;;1.87;1.77;;;4.50;99.90;;;;;;4952283;28;20280;-68
2020/12/28 03:27:48;;;;;;;2.03;1.93;;;4.50;99.90;;;;;;4951575;28;20279;-68
2020/12/28 03:30:13;;;;;;;2.70;2.50;;;4.50;99.90;;;;;;4952267;28;20215;-67
2020/12/28 03:32:39;;;;;;;4.87;2.87;;;4.50;99.90;;;;;;4952735;28;20181;-68
2020/12/28 03:35:05;;;;;;;4.77;2.50;;;4.50;99.90;;;;;;4952260;28;20228;-68
2020/12/28 03:37:30;;;;;;;2.30;2.10;;;4.50;99.90;;;;;;4951829;28;20228;-68
2020/12/28 03:39:56;;;;;;;2.73;1.90;;;4.50;99.90;;;;;;4951427;28;20185;-68
2020/12/28 03:42:21;;;;;;;1.87;1.77;;;4.50;99.90;;;;;;4952408;28;20185;-68
2020/12/28 03:44:47;;;;;;;2.00;1.77;;;4.60;99.90;;;;;;4952095;28;20721;-67
2020/12/28 03:47:12;;;;;;;2.00;1.90;;;4.50;99.90;;;;;;4951594;28;20197;-68
2020/12/28 03:49:38;;;;;;;1.90;1.80;;;4.60;99.90;;;;;;4951369;28;20226;-68
2020/12/28 03:52:03;;;;;;;1.70;1.60;;;4.60;99.90;;;;;;4951756;28;20195;-68
2020/12/28 03:54:29;;;;;;;1.93;1.67;;;4.60;99.90;;;;;;4951952;28;20719;-68
2020/12/28 03:56:54;;;;;;;2.10;1.47;;;4.50;99.90;;;;;;4951987;28;20197;-68
2020/12/28 03:59:20;;;;;;;2.50;2.03;;;4.60;99.90;;;;;;4951422;28;20534;-69
2020/12/28 04:01:46;;;;;;;4.37;3.30;;;4.50;99.90;;;;;;4950599;29;20173;-68
2020/12/28 04:04:11;;;;;;;1.70;1.60;;;4.50;99.90;;;;;;4952094;28;20200;-68
2020/12/28 04:06:37;;;;;;;1.80;1.60;;;4.50;99.90;;;;;;4951647;28;20695;-68
2020/12/28 04:09:03;;;;;;;1.40;1.30;;;4.40;99.90;;;;;;4950823;28;20183;-68
2020/12/28 04:11:28;;;;;;;1.53;1.43;;;4.40;99.90;;;;;;4951639;28;20216;-68
2020/12/28 04:13:54;;;;;;;1.50;1.40;;;4.40;99.90;;;;;;4951152;28;20424;-68
2020/12/28 04:16:19;;;;;;;1.60;1.50;;;4.40;99.90;;;;;;4951502;28;20712;-68
2020/12/28 04:18:45;;;;;;;1.80;1.70;;;4.30;99.90;;;;;;4950719;28;20169;-67
2020/12/28 04:21:10;;;;;;;1.20;1.10;;;4.30;99.90;;;;;;4950985;28;20185;-68
2020/12/28 04:23:36;;;;;;;2.03;1.67;;;4.30;99.90;;;;;;4951485;28;20169;-68
2020/12/28 04:26:04;;;;;;;1.40;1.20;;;4.30;99.90;;;;;;4951309;28;20189;-68
2020/12/28 04:28:29;;;;;;;1.83;1.70;;;4.30;99.90;;;;;;4950770;28;20756;-68
2020/12/28 04:30:55;;;;;;;2.50;1.73;;;4.30;99.90;;;;;;4951578;28;20495;-68
2020/12/28 04:33:20;;;;;;;1.80;1.10;;;4.30;99.90;;;;;;4951327;28;20208;-68
2020/12/28 04:35:46;;;;;;;1.80;1.70;;;4.30;99.90;;;;;;4949721;29;20208;-68
2020/12/28 04:38:11;;;;;;;0.90;0.90;;;4.30;99.90;;;;;;4950661;28;20240;-68
2020/12/28 04:40:38;;;;;;;1.10;1.00;;;4.30;99.90;;;;;;4950928;28;20171;-68
2020/12/28 04:43:10;;;;;;;0.63;0.63;;;4.30;99.90;;;;;;4951188;28;20184;-67
2020/12/28 04:45:35;;;;;;;1.70;1.07;;;4.30;99.90;;;;;;4951553;28;20841;-68
2020/12/28 04:48:01;;;;;;;1.13;0.93;;;4.20;99.90;;;;;;4950017;28;20530;-68
2020/12/28 04:50:27;;;;;;;1.20;1.10;;;4.20;99.90;;;;;;4951205;28;20290;-68
2020/12/28 04:52:52;;;;;;;8.73;4.73;;;4.20;99.90;;;;;;4951084;28;20454;-67
2020/12/28 04:55:18;;;;;;;2.83;1.10;;;4.20;99.90;;;;;;4951030;28;20256;-68
2020/12/28 04:57:43;;;;;;;5.50;3.20;;;4.20;99.90;;;;;;4949749;28;20255;-68
2020/12/28 05:00:09;;;;;;;1.70;1.23;;;4.10;99.90;;;;;;4951113;28;20228;-67
2020/12/28 05:02:35;;;;;;;0.90;0.80;;;4.20;99.90;;;;;;4950665;28;20181;-67
2020/12/28 05:05:06;;;;;;;2.10;1.90;;;4.10;99.90;;;;;;4951011;28;20705;-67
2020/12/28 05:07:32;;;;;;;1.90;0.93;;;4.10;99.90;;;;;;4950745;28;20633;-67
2020/12/28 05:09:59;;;;;;;1.10;0.87;;;4.10;99.90;;;;;;4949661;28;20994;-68
2020/12/28 05:12:25;;;;;;;1.33;1.00;;;4.10;99.90;;;;;;4951097;28;20424;-68
2020/12/28 05:14:51;;;;;;;1.40;0.70;;;4.10;99.90;;;;;;4950673;28;20416;-68
2020/12/28 05:17:17;;;;;;;1.20;1.10;;;4.10;99.90;;;;;;4950406;28;20197;-68
2020/12/28 05:19:42;;;;;;;0.80;0.80;;;4.10;99.90;;;;;;4949800;28;20574;-68
2020/12/28 05:22:08;;;;;;;0.80;0.80;;;4.20;99.90;;;;;;4950554;28;20484;-67
2020/12/28 05:24:33;;;;;;;0.93;0.93;;;4.20;99.90;;;;;;4950085;28;20169;-67
2020/12/28 05:26:59;;;;;;;1.00;1.00;;;4.20;99.90;;;;;;4951028;29;20227;-67
2020/12/28 05:29:27;;;;;;;1.20;1.10;;;4.20;99.90;;;;;;4949466;28;20593;-67
2020/12/28 05:31:53;;;;;;;1.40;1.10;;;4.20;99.90;;;;;;4950431;28;20556;-67
2020/12/28 05:34:27;;;;;;;1.00;1.00;;;4.20;99.90;;;;;;4949777;28;20429;-67
2020/12/28 05:36:58;;;;;;;1.20;1.10;;;4.20;99.90;;;;;;4949776;28;20482;-67
2020/12/28 05:39:26;;;;;;;1.17;0.87;;;4.20;99.90;;;;;;4949467;28;20440;-67
2020/12/28 05:41:57;;;;;;;0.90;0.80;;;4.20;99.90;;;;;;4950138;28;20837;-67
2020/12/28 05:44:26;;;;;;;1.00;0.70;;;4.20;99.90;;;;;;4950151;28;20416;-69
2020/12/28 05:47:18;;;;;;;0.93;0.83;;;4.20;99.90;;;;;;4949951;28;20837;-67
2020/12/28 05:49:46;;;;;;;0.83;0.83;;;4.20;99.90;;;;;;4948973;28;20470;-67
2020/12/28 05:52:13;;;;;;;0.80;0.80;;;4.20;99.90;;;;;;4948202;28;20432;-67
2020/12/28 05:54:40;;;;;;;0.87;0.87;;;4.20;99.90;;;;;;4949887;28;20448;-67
2020/12/28 05:57:06;;;;;;;0.87;0.87;;;4.10;99.90;;;;;;4949598;28;20456;-67
2020/12/28 05:59:34;;;;;;;0.80;0.80;;;4.10;99.90;;;;;;4948631;28;20428;-67
2020/12/28 06:02:00;;;;;;;1.17;1.00;;;4.10;99.90;;;;;;4948765;28;21337;-67
2020/12/28 06:04:26;;;;;;;1.60;1.00;;;4.10;99.90;;;;;;4949216;28;20424;-67
2020/12/28 06:07:02;;;;;;;2.70;1.00;;;4.10;99.90;;;;;;4949649;28;20825;-67
2020/12/28 06:09:29;;;;;;;1.63;0.80;;;4.10;99.90;;;;;;4948344;28;20470;-67
2020/12/28 06:12:08;;;;;;;1.53;1.00;;;4.00;99.90;;;;;;4949284;28;20428;-67
2020/12/28 06:14:35;;;;;;;1.60;1.10;;;4.00;99.90;;;;;;4949717;28;20428;-67
2020/12/28 06:17:08;;;;;;;0.90;0.90;;;4.00;99.90;;;;;;4949806;28;20507;-67
2020/12/28 06:19:34;;;;;;;0.83;0.83;;;4.00;99.90;;;;;;4948839;28;20796;-67
2020/12/28 06:22:00;;;;;;;1.63;0.97;;;4.00;99.90;;;;;;4950066;28;20433;-67
2020/12/28 06:24:31;;;;;;;0.97;0.90;;;4.00;99.90;;;;;;4949569;28;20432;-67
2020/12/28 06:27:05;;;;;;;1.30;0.83;;;4.00;99.90;;;;;;4949197;28;20364;-67
2020/12/28 06:29:31;;;;;;;1.20;1.10;;;4.00;99.90;;;;;;4948614;28;20432;-67
2020/12/28 06:31:57;;;;;;;0.97;0.90;;;4.00;99.90;;;;;;4948970;28;20961;-67
2020/12/28 06:34:23;;;;;;;1.37;1.27;;;4.00;99.90;;;;;;4949494;28;20432;-67
2020/12/28 06:37:01;;;;;;;2.07;1.20;;;4.00;99.90;;;;;;4949130;28;20922;-67
2020/12/28 06:39:28;;;;;;;3.43;0.97;;;4.00;99.90;;;;;;4948232;28;20187;-67
2020/12/28 06:41:53;;;;;;;1.60;1.27;;;4.00;99.90;;;;;;4949395;28;20856;-67
2020/12/28 06:44:26;;;;;;;1.43;0.80;;;4.00;99.90;;;;;;4951054;28;20763;-67
2020/12/28 06:46:53;;;;;;;3.00;1.27;;;4.00;99.90;;;;;;4953191;28;20760;-67
2020/12/28 06:49:18;;;;;;;0.83;0.77;;;4.00;99.90;;;;;;4952725;28;20818;-67
2020/12/28 06:51:44;;;;;;;0.80;0.80;;;4.00;99.90;;;;;;4951548;29;20464;-67
2020/12/28 06:54:10;;;;;;;2.10;1.53;;;3.90;99.90;;;;;;4952971;28;20177;-67
2020/12/28 06:56:35;;;;;;;1.07;0.93;;;3.90;99.90;;;;;;4953374;28;20192;-67
2020/12/28 06:59:01;;;;;;;1.73;0.87;;;3.90;99.90;;;;;;4952069;28;20487;-67
2020/12/28 07:01:28;;;;;;;1.80;0.97;;;3.80;99.90;;;;;;4952349;28;20267;-67
2020/12/28 07:03:55;;;;;;;1.20;0.80;;;3.80;99.90;;;;;;4953270;28;20420;-67
2020/12/28 07:06:21;;;;;;;1.53;0.77;;;3.80;99.90;;;;;;4953011;28;21001;-67
2020/12/28 07:08:46;;;;;;;1.47;0.70;;;3.80;99.90;;;;;;4952427;28;20499;-67
2020/12/28 07:11:18;;;;;;;1.20;1.00;;;3.80;99.90;;;;;;4952957;28;20464;-67
2020/12/28 07:13:47;;;;;;;1.30;1.00;;;3.80;99.90;;;;;;4952764;29;20433;-67
2020/12/28 07:16:13;;;;;;;1.27;0.80;;;3.70;99.90;;;;;;4952563;28;20452;-67
2020/12/28 07:18:40;;;;;;;1.20;1.03;;;3.70;99.90;;;;;;4951928;28;20512;-67
2020/12/28 07:21:06;;;;;;;1.40;1.17;;;3.70;99.90;;;;;;4952512;28;20805;-67
2020/12/28 07:23:33;;;;;;;1.03;0.90;;;3.70;99.90;;;;;;4952942;28;20436;-67
2020/12/28 07:26:06;;;;;;;0.90;0.90;;;3.70;99.90;;;;;;4952248;28;20424;-67
2020/12/28 07:28:34;;;;;;;1.13;1.03;;;3.70;99.90;;;;;;4951645;28;20435;-67
2020/12/28 07:31:01;;;;;;;1.70;1.00;;;3.70;99.90;;;;;;4952287;28;20467;-67
2020/12/28 07:33:27;;;;;;;1.00;1.00;;;3.70;99.90;;;;;;4952174;28;20412;-67
2020/12/28 07:36:06;;;;;;;3.10;1.30;;;3.80;99.90;;;;;;4952087;28;20425;-67
2020/12/28 07:38:32;;;;;;;1.47;1.20;;;3.80;99.90;;;;;;4951382;28;20431;-67
2020/12/28 07:40:58;;;;;;;5.20;2.30;;;3.80;99.90;;;;;;4952154;28;20424;-67
2020/12/28 07:43:23;;;;;;;2.23;2.00;;;3.80;99.90;;;;;;4952048;28;20188;-67
2020/12/28 07:45:51;;;;;;;3.93;2.33;;;3.80;99.90;;;;;;4952641;28;20189;-67
2020/12/28 07:48:20;;;;;;;3.30;2.13;;;3.80;99.90;;;;;;4951330;28;20205;-67
2020/12/28 07:50:51;;;;;;;2.27;1.97;;;3.80;99.90;;;;;;4952375;29;20567;-67
2020/12/28 07:53:25;;;;;;;3.40;1.97;;;3.80;99.90;;;;;;4951439;29;20487;-67
2020/12/28 07:56:03;;;;;;;1.83;1.27;;;3.80;99.90;;;;;;4951204;28;20461;-67
2020/12/28 07:59:04;;;;;;;1.80;1.50;;;3.70;99.90;;;;;;4951030;28;20432;-67
2020/12/28 08:01:42;;;;;;;2.53;1.60;;;3.80;99.90;;;;;;4950576;28;20792;-67
2020/12/28 08:04:10;;;;;;;1.97;1.87;;;3.80;99.90;;;;;;4951829;28;20758;-67
2020/12/28 08:06:36;;;;;;;4.13;1.57;;;3.80;99.90;;;;;;4947611;28;20464;-67
2020/12/28 08:09:03;;;;;;;2.67;1.90;;;3.80;99.90;;;;;;4950712;29;20498;-67
2020/12/28 08:11:30;;;;;;;3.30;1.93;;;3.80;99.90;;;;;;4951328;28;20463;-67
2020/12/28 08:13:56;;;;;;;2.07;1.93;;;3.70;99.90;;;;;;4951849;28;20437;-67
2020/12/28 08:16:23;;;;;;;2.13;1.93;;;3.80;99.90;;;;;;4951247;28;20440;-66
2020/12/28 08:18:51;;;;;;;2.63;1.70;;;3.80;99.90;;;;;;4951080;28;20436;-67
2020/12/28 08:21:18;;;;;;;2.40;2.03;;;3.80;99.90;;;;;;4951353;28;20472;-67
2020/12/28 08:23:56;;;;;;;2.23;1.90;;;3.80;99.90;;;;;;4951372;28;20436;-67
2020/12/28 08:26:30;;;;;;;2.10;1.83;;;3.80;99.90;;;;;;4951322;28;20468;-67
2020/12/28 08:28:59;;;;;;;4.33;2.23;;;3.80;99.90;;;;;;4951018;28;20428;-67
2020/12/28 08:31:34;;;;;;;1.40;1.17;;;3.90;99.90;;;;;;4951290;28;20464;-67
2020/12/28 08:34:06;;;;;;;1.40;1.00;;;3.90;99.90;;;;;;4951743;28;20427;-69
2020/12/28 08:36:34;;;;;;;1.37;1.17;;;3.90;99.90;;;;;;4951228;28;20444;-67
2020/12/28 08:39:15;;;;;;;3.63;1.33;;;3.90;99.90;;;;;;4950376;28;20507;-67
2020/12/28 08:42:01;;;;;;;1.00;0.80;;;3.90;99.90;;;;;;4951538;28;20424;-67
2020/12/28 08:44:30;;;;;;;3.97;1.07;;;3.80;99.90;;;;;;4951015;28;20895;-67
2020/12/28 08:46:56;;;;;;;1.07;1.00;;;3.80;99.90;;;;;;4951256;28;20961;-66
2020/12/28 08:49:30;;;;;;;0.93;0.77;;;3.80;99.90;;;;;;4950188;28;20789;-67
2020/12/28 08:52:19;;;;;;;0.93;0.70;;;3.90;99.90;;;;;;4950792;28;20446;-67
2020/12/28 08:54:54;;;;;;;1.57;1.13;;;4.00;99.90;;;;;;4950969;29;20413;-67
2020/12/28 08:57:22;;;;;;;1.67;1.00;;;4.10;99.90;;;;;;4950901;28;20440;-67
2020/12/28 08:59:48;;;;;;;0.97;0.80;;;4.10;99.90;;;;;;4950207;28;20963;-67
2020/12/28 09:02:17;;;;;;;1.07;0.90;;;4.10;99.90;;;;;;4949809;28;20421;-67
2020/12/28 09:04:43;;;;;;;1.80;0.90;;;4.20;99.90;;;;;;4950517;28;20248;-67
2020/12/28 09:07:10;;;;;;;1.07;0.97;;;4.20;99.90;;;;;;4950734;28;20954;-67
2020/12/28 09:09:36;;;;;;;2.23;1.27;;;4.30;99.90;;;;;;4949908;28;20427;-67
2020/12/28 09:12:02;;;;;;;1.73;1.03;;;4.20;99.90;;;;;;4950105;28;20950;-67
2020/12/28 09:14:28;;;;;;;1.20;1.10;;;4.20;99.90;;;;;;4950735;28;21059;-67
2020/12/28 09:16:54;;;;;;;2.87;1.20;;;4.20;99.90;;;;;;4950225;28;20535;-67
2020/12/28 09:19:20;;;;;;;5.10;3.47;;;4.10;99.90;;;;;;4949597;28;20507;-67
2020/12/28 09:21:46;;;;;;;3.27;2.43;;;4.10;99.90;;;;;;4949223;29;20531;-67
2020/12/28 09:24:11;;;;;;;3.30;1.87;;;4.10;99.90;;;;;;4950928;28;20185;-67
2020/12/28 09:26:38;;;;;;;1.20;1.10;;;4.10;99.90;;;;;;4950100;28;20268;-67
2020/12/28 09:29:04;;;;;;;2.40;1.30;;;4.10;99.90;;;;;;4949773;28;20191;-67
2020/12/28 09:31:30;;;;;;;1.33;1.20;;;4.10;99.90;;;;;;4950413;28;20467;-67
2020/12/28 09:33:56;;;;;;;1.40;1.30;;;4.10;99.90;;;;;;4949710;28;20427;-67
2020/12/28 09:36:22;;;;;;;1.63;1.20;;;4.10;99.90;;;;;;4950181;28;20746;-67
2020/12/28 09:38:48;;;;;;;1.80;1.70;;;4.10;99.90;;;;;;4949297;28;20524;-67
2020/12/28 09:41:14;;;;;;;2.23;1.30;;;4.10;99.90;;;;;;4949753;28;20272;-67
2020/12/28 09:43:41;;;;;;;2.00;1.33;;;4.10;99.90;;;;;;4949850;28;20416;-67
2020/12/28 09:46:09;;;;;;;2.20;1.47;;;4.10;99.90;;;;;;4949931;28;20957;-67
2020/12/28 09:48:36;;;;;;;1.40;1.30;;;4.10;99.90;;;;;;4949156;28;20431;-67
2020/12/28 09:51:05;;;;;;;1.43;1.33;;;4.20;99.90;;;;;;4950320;28;21079;-67
2020/12/28 09:53:32;;;;;;;1.67;1.57;;;4.20;99.90;;;;;;4949699;28;20438;-67
2020/12/28 09:55:58;;;;;;;2.33;1.50;;;4.20;99.90;;;;;;4949787;28;20456;-67
2020/12/28 09:58:24;;;;;;;2.07;1.80;;;4.30;99.90;;;;;;4949199;28;20417;-67
2020/12/28 10:00:52;;;;;;;2.43;1.57;;;4.30;99.90;;;;;;4948284;28;20942;-67
2020/12/28 10:03:19;;;;;;;2.50;1.50;;;4.30;99.90;;;;;;4949997;28;20491;-67
2020/12/28 10:05:46;;;;;;;1.70;1.60;;;4.40;99.90;;;;;;4949643;28;20432;-67
2020/12/28 10:08:12;;;;;;;2.10;1.93;;;4.40;99.90;;;;;;4949042;28;20882;-67
2020/12/28 10:10:38;;;;;;;3.90;2.40;;;4.40;99.90;;;;;;4949600;28;20543;-67
2020/12/28 10:13:05;;;;;;;3.20;2.90;;;4.40;99.90;;;;;;4949868;28;20446;-67
2020/12/28 10:15:31;;;;;;;3.50;3.20;;;4.40;99.90;;;;;;4950116;28;20421;-67
2020/12/28 10:18:22;;;;;;;3.73;3.33;;;4.40;99.90;;;;;;4948999;28;20444;-67
2020/12/28 10:20:49;;;;;;;4.40;3.23;;;4.40;99.90;;;;;;4949698;28;21005;-68
2020/12/28 10:23:15;;;;;;;3.80;3.40;;;4.40;99.90;;;;;;4949650;28;20895;-68
2020/12/28 10:25:42;;;;;;;4.00;3.60;;;4.40;99.90;;;;;;4949817;28;20494;-67
2020/12/28 10:28:08;;;;;;;4.17;3.87;;;4.50;99.90;;;;;;4948426;28;20448;-67
2020/12/28 10:30:35;;;;;;;3.60;3.30;;;4.50;99.90;;;;;;4949611;29;20984;-67
2020/12/28 10:33:01;;;;;;;4.90;4.17;;;4.50;99.90;;;;;;4949735;28;20517;-67
2020/12/28 10:35:28;;;;;;;5.83;4.40;;;4.60;99.90;;;;;;4949585;28;20432;-68
2020/12/28 10:37:57;;;;;;;4.43;4.13;;;4.60;99.90;;;;;;4948712;28;20452;-68
2020/12/28 10:40:23;;;;;;;3.60;3.30;;;4.60;99.90;;;;;;4949335;28;20427;-67
2020/12/28 10:42:48;;;;;;;4.00;3.60;;;4.60;99.90;;;;;;4949382;28;20929;-68
2020/12/28 10:45:16;;;;;;;4.90;4.40;;;4.60;99.90;;;;;;4949443;28;20192;-68
2020/12/28 10:47:42;;;;;;;4.70;4.30;;;4.60;99.90;;;;;;4948689;29;20196;-67
2020/12/28 10:50:08;;;;;;;4.30;3.90;;;4.70;99.90;;;;;;4948895;28;20899;-67
2020/12/28 10:52:34;;;;;;;5.00;4.27;;;4.70;99.90;;;;;;4949391;28;20424;-68
2020/12/28 10:55:00;;;;;;;4.23;3.80;;;4.70;99.90;;;;;;4949109;28;20503;-68
2020/12/28 10:57:27;;;;;;;4.37;4.07;;;4.80;99.90;;;;;;4948818;28;20436;-67
2020/12/28 10:59:53;;;;;;;3.80;3.50;;;4.80;99.90;;;;;;4948593;28;20460;-68
2020/12/28 11:02:19;;;;;;;5.03;4.53;;;4.80;99.90;;;;;;4947967;28;20412;-68
2020/12/28 11:04:45;;;;;;;4.40;4.00;;;4.90;99.90;;;;;;4949208;28;20515;-68
2020/12/28 11:07:12;;;;;;;5.17;4.67;;;4.90;99.90;;;;;;4948968;28;20471;-68
2020/12/28 11:09:38;;;;;;;3.93;3.53;;;5.00;99.90;;;;;;4947885;28;20425;-68
2020/12/28 11:12:04;;;;;;;7.03;4.93;;;4.90;99.90;;;;;;4948835;28;20426;-68
2020/12/28 11:14:31;;;;;;;5.00;4.50;;;4.90;99.90;;;;;;4949307;28;20475;-68
2020/12/28 11:17:00;;;;;;;5.30;4.03;;;4.90;99.90;;;;;;4946956;28;20448;-68
2020/12/28 11:19:27;;;;;;;3.67;3.37;;;4.90;99.90;;;;;;4948106;28;20436;-68
2020/12/28 11:21:53;;;;;;;4.90;4.27;;;4.80;99.90;;;;;;4949013;28;20421;-68
2020/12/28 11:24:19;;;;;;;3.60;3.30;;;4.80;99.90;;;;;;4948441;28;20511;-68
2020/12/28 11:26:45;;;;;;;4.27;3.87;;;4.70;99.90;;;;;;4949260;28;20562;-69
2020/12/28 11:29:12;;;;;;;4.10;3.80;;;4.70;99.90;;;;;;4947950;28;20487;-67
2020/12/28 11:31:38;;;;;;;4.33;3.93;;;4.80;99.90;;;;;;4950059;28;20474;-67
2020/12/28 11:34:05;;;;;;;5.20;4.70;;;4.80;99.90;;;;;;4952227;28;20420;-68
2020/12/28 11:36:32;;;;;;;4.33;4.00;;;4.80;99.90;;;;;;4952527;28;20444;-69
2020/12/28 11:38:58;;;;;;;4.93;3.93;;;4.80;99.90;;;;;;4951228;28;20424;-68
2020/12/28 11:41:27;;;;;;;3.90;3.30;;;4.80;99.90;;;;;;4952333;28;20425;-68
2020/12/28 11:43:52;;;;;;;6.97;3.80;;;4.80;99.90;;;;;;4952273;28;20424;-68
2020/12/28 11:46:19;;;;;;;4.20;3.90;;;4.90;99.90;;;;;;4951758;28;20482;-67
2020/12/28 11:48:46;;;;;;;4.07;3.70;;;4.90;99.90;;;;;;4951562;28;20636;-68
2020/12/28 11:51:13;;;;;;;4.57;4.07;;;5.00;99.90;;;;;;4952113;28;20472;-68
2020/12/28 11:53:39;;;;;;;3.43;3.13;;;5.00;99.90;;;;;;4952167;28;20424;-68
2020/12/28 11:56:11;;;;;;;4.47;3.60;;;5.00;99.90;;;;;;4951937;28;20670;-67
2020/12/28 11:58:39;;;;;;;3.60;3.10;;;5.00;99.90;;;;;;4951375;28;20177;-67
2020/12/28 12:01:12;;;;;;;5.73;3.83;;;5.00;99.90;;;;;;4951792;28;20447;-67
2020/12/28 12:03:37;;;;;;;3.63;2.60;;;5.10;99.90;;;;;;4952535;28;20442;-67
2020/12/28 12:06:03;;;;;;;3.30;3.00;;;5.10;99.90;;;;;;4951899;28;20546;-67
2020/12/28 12:08:29;;;;;;;3.93;3.03;;;5.10;99.90;;;;;;4951202;28;20244;-68
2020/12/28 12:10:54;;;;;;;4.30;3.90;;;5.10;99.90;;;;;;4952059;28;20219;-67
2020/12/28 12:13:20;;;;;;;3.63;3.00;;;5.20;99.90;;;;;;4951653;28;20216;-69
2020/12/28 12:15:47;;;;;;;3.87;2.90;;;5.20;99.90;;;;;;4951719;28;20634;-68
2020/12/28 12:18:13;;;;;;;3.50;2.97;;;5.30;99.90;;;;;;4950690;28;20208;-69
2020/12/28 12:20:39;;;;;;;3.30;2.57;;;5.30;99.90;;;;;;4951674;28;20435;-68
2020/12/28 12:23:05;;;;;;;3.03;2.73;;;5.40;99.90;;;;;;4951695;28;20467;-69
2020/12/28 12:25:32;;;;;;;2.87;2.50;;;5.40;99.90;;;;;;4951543;28;20955;-68
2020/12/28 12:27:57;;;;;;;3.63;2.67;;;5.30;99.90;;;;;;4950555;28;21010;-67
2020/12/28 12:30:23;;;;;;;3.17;2.87;;;5.30;99.90;;;;;;4951172;28;20902;-69
2020/12/28 12:32:48;;;;;;;4.80;2.67;;;5.30;99.90;;;;;;4949989;28;20189;-68
2020/12/28 12:35:14;;;;;;;3.27;2.97;;;5.20;99.90;;;;;;4951257;28;20248;-67
2020/12/28 12:37:40;;;;;;;4.97;4.30;;;5.20;99.90;;;;;;4950497;28;20204;-70
2020/12/28 12:40:05;;;;;;;3.87;3.57;;;5.10;99.90;;;;;;4951251;28;20212;-67
2020/12/28 12:42:31;;;;;;;3.37;3.17;;;5.00;99.90;;;;;;4951196;28;20181;-68
2020/12/28 12:44:56;;;;;;;3.57;3.17;;;4.90;99.90;;;;;;4951150;28;20203;-69
2020/12/28 12:47:22;;;;;;;3.40;3.10;;;4.90;99.90;;;;;;4951108;28;20215;-67
2020/12/28 12:49:47;;;;;;;4.97;3.03;;;4.90;99.90;;;;;;4950448;28;20197;-69
2020/12/28 12:52:15;;;;;;;2.63;2.43;;;4.80;99.90;;;;;;4951358;28;20184;-67
2020/12/28 12:54:40;;;;;;;2.93;1.83;;;4.70;99.90;;;;;;4951296;28;20181;-67
2020/12/28 12:57:07;;;;;;;3.40;2.17;;;4.70;99.90;;;;;;4950563;28;20479;-68